Terminal Aerodrome Forecast
Issued by NWS

Current Version | Previous Version | Text Only | Print | Product List | Glossary On
Versions: 1 2 3 4 5 6 7 8 9 10 11 12 13 14 15
328
FTUS45 KTFX 202340
TAFCTB
TAF
KCTB 202340Z 2100/2124 26020G30KT P6SM SCT100
      TEMPO 2100/2102 28030G40KT
     FM210300 26015KT P6SM FEW150
     FM211600 25020G30KT P6SM FEW150=

USA.gov is the U.S. government's official web portal to all federal, state and local government web resources and services.